FHVIP LSGS-LFMN
Flight info
| Callsign | FHVIP |
|---|---|
| Flight time | 0h 48m |
| Altitude | 23000 |
| Route | ROCCA Y51 VANAS DCT MEDAM DCT VEVAR |
| Aircraft | FA8X/M-SBDE2E3FGHIJ1J3J4J7P2RWXYZ/LB2D1 |
Departure
| Time | 2026-05-06 08:00 |
|---|---|
| Airport | Sion Airport (LSGS) |
Arrival
| Time | 2026-05-06 08:48 |
|---|---|
| Airport | Nice-Côte d'Azur Airport (LFMN) |
| Time | Latitude | Longitude | Altitude | Speed | Heading |
|---|---|---|---|---|---|
| 2026-05-06 07:57 | 46.22176 | 7.33496 | 1582 ft | 0 kts | 342° |
| 2026-05-06 07:57 | 46.22181 | 7.33496 | 1582 ft | 1 kts | 18° |
| 2026-05-06 07:58 | 46.22185 | 7.33511 | 1582 ft | 2 kts | 80° |
| 2026-05-06 07:58 | 46.22193 | 7.33576 | 1583 ft | 10 kts | 75° |
| 2026-05-06 07:58 | 46.22219 | 7.33698 | 1583 ft | 13 kts | 76° |
| 2026-05-06 07:58 | 46.22239 | 7.33826 | 1584 ft | 12 kts | 76° |
| 2026-05-06 07:59 | 46.22219 | 7.33918 | 1584 ft | 9 kts | 158° |
| 2026-05-06 07:59 | 46.22184 | 7.33862 | 1584 ft | 14 kts | 253° |
| 2026-05-06 07:59 | 46.22061 | 7.33284 | 1581 ft | 105 kts | 253° |
| 2026-05-06 07:59 | 46.21804 | 7.32057 | 2005 ft | 131 kts | 252° |
| 2026-05-06 08:00 | 46.21518 | 7.30796 | 2865 ft | 140 kts | 247° |
| 2026-05-06 08:00 | 46.21055 | 7.29502 | 3556 ft | 155 kts | 239° |
| 2026-05-06 08:00 | 46.20448 | 7.28147 | 4209 ft | 173 kts | 235° |
| 2026-05-06 08:00 | 46.19723 | 7.26600 | 4894 ft | 197 kts | 236° |
| 2026-05-06 08:01 | 46.18984 | 7.24991 | 6019 ft | 197 kts | 236° |
| 2026-05-06 08:01 | 46.18235 | 7.23363 | 7036 ft | 200 kts | 236° |
| 2026-05-06 08:01 | 46.17476 | 7.21713 | 8060 ft | 201 kts | 236° |
| 2026-05-06 08:01 | 46.16717 | 7.20066 | 9010 ft | 204 kts | 235° |
| 2026-05-06 08:02 | 46.15931 | 7.18362 | 9926 ft | 207 kts | 235° |
| 2026-05-06 08:02 | 46.15118 | 7.16599 | 10561 ft | 223 kts | 235° |
| 2026-05-06 08:02 | 46.14234 | 7.14683 | 11279 ft | 238 kts | 235° |
| 2026-05-06 08:02 | 46.13318 | 7.12700 | 12449 ft | 245 kts | 234° |
| 2026-05-06 08:03 | 46.12406 | 7.10728 | 13868 ft | 241 kts | 234° |
| 2026-05-06 08:03 | 46.11496 | 7.08759 | 15070 ft | 243 kts | 234° |
| 2026-05-06 08:03 | 46.10563 | 7.06743 | 16267 ft | 245 kts | 233° |
| 2026-05-06 08:03 | 46.09623 | 7.04733 | 17369 ft | 249 kts | 233° |
| 2026-05-06 08:04 | 46.08616 | 7.02658 | 18058 ft | 270 kts | 232° |
| 2026-05-06 08:04 | 46.07435 | 7.00238 | 18148 ft | 313 kts | 233° |
| 2026-05-06 08:04 | 46.06148 | 6.97597 | 19033 ft | 327 kts | 233° |
| 2026-05-06 08:04 | 46.04833 | 6.94902 | 20056 ft | 337 kts | 231° |
| 2026-05-06 08:05 | 46.03481 | 6.92134 | 21045 ft | 346 kts | 232° |
| 2026-05-06 08:05 | 46.02103 | 6.89313 | 22074 ft | 353 kts | 231° |
| 2026-05-06 08:05 | 46.00691 | 6.86425 | 23231 ft | 357 kts | 231° |
| 2026-05-06 08:05 | 45.99254 | 6.83491 | 24264 ft | 363 kts | 230° |
| 2026-05-06 08:06 | 45.97826 | 6.80577 | 25466 ft | 361 kts | 231° |
| 2026-05-06 08:06 | 45.96400 | 6.77670 | 26620 ft | 359 kts | 231° |
| 2026-05-06 08:06 | 45.94964 | 6.74745 | 27716 ft | 357 kts | 231° |
| 2026-05-06 08:06 | 45.93563 | 6.71898 | 28752 ft | 356 kts | 231° |
| 2026-05-06 08:07 | 45.92106 | 6.69007 | 29570 ft | 356 kts | 226° |
| 2026-05-06 08:07 | 45.90229 | 6.66831 | 29808 ft | 351 kts | 206° |
| 2026-05-06 08:07 | 45.87893 | 6.65950 | 29844 ft | 356 kts | 185° |
| 2026-05-06 08:07 | 45.85412 | 6.66455 | 29873 ft | 364 kts | 171° |
| 2026-05-06 08:08 | 45.82845 | 6.66957 | 29810 ft | 386 kts | 185° |
| 2026-05-06 08:08 | 45.80145 | 6.66275 | 29974 ft | 403 kts | 196° |
| 2026-05-06 08:08 | 45.77370 | 6.65346 | 29850 ft | 413 kts | 193° |
| 2026-05-06 08:08 | 45.74570 | 6.64690 | 29810 ft | 412 kts | 186° |
| 2026-05-06 08:09 | 45.71671 | 6.65227 | 29820 ft | 423 kts | 168° |
| 2026-05-06 08:09 | 45.68983 | 6.66989 | 29859 ft | 431 kts | 156° |
| 2026-05-06 08:09 | 45.63625 | 6.70744 | 29832 ft | 426 kts | 162° |
| 2026-05-06 08:10 | 45.58190 | 6.74152 | 29824 ft | 425 kts | 162° |
| 2026-05-06 08:10 | 45.52795 | 6.77542 | 29823 ft | 426 kts | 162° |
| 2026-05-06 08:11 | 45.47319 | 6.80976 | 29816 ft | 428 kts | 162° |
| 2026-05-06 08:11 | 45.41884 | 6.84376 | 29823 ft | 426 kts | 162° |
| 2026-05-06 08:12 | 45.36408 | 6.87795 | 29820 ft | 429 kts | 162° |
| 2026-05-06 08:12 | 45.30954 | 6.91193 | 29813 ft | 432 kts | 163° |
| 2026-05-06 08:13 | 45.25423 | 6.94251 | 29668 ft | 422 kts | 174° |
| 2026-05-06 08:13 | 45.22580 | 6.94690 | 29367 ft | 398 kts | 181° |
| 2026-05-06 08:13 | 45.19923 | 6.95017 | 29051 ft | 379 kts | 180° |
| 2026-05-06 08:14 | 45.17373 | 6.95423 | 28722 ft | 361 kts | 179° |
| 2026-05-06 08:14 | 45.14881 | 6.95816 | 28433 ft | 357 kts | 179° |
| 2026-05-06 08:14 | 45.12425 | 6.96200 | 28162 ft | 361 kts | 179° |
| 2026-05-06 08:14 | 45.09893 | 6.96596 | 27905 ft | 362 kts | 180° |
| 2026-05-06 08:15 | 45.07395 | 6.96987 | 27631 ft | 361 kts | 179° |
| 2026-05-06 08:15 | 45.04911 | 6.97375 | 27343 ft | 363 kts | 179° |
| 2026-05-06 08:15 | 45.02391 | 6.97769 | 27066 ft | 360 kts | 180° |
| 2026-05-06 08:15 | 44.99896 | 6.98158 | 26801 ft | 360 kts | 180° |
| 2026-05-06 08:16 | 44.97430 | 6.98542 | 26526 ft | 361 kts | 180° |
| 2026-05-06 08:16 | 44.94960 | 6.98927 | 26262 ft | 358 kts | 180° |
| 2026-05-06 08:16 | 44.92453 | 6.99317 | 25982 ft | 355 kts | 180° |
| 2026-05-06 08:16 | 44.90035 | 6.99693 | 25707 ft | 355 kts | 180° |
| 2026-05-06 08:17 | 44.87529 | 7.00082 | 25450 ft | 353 kts | 180° |
| 2026-05-06 08:17 | 44.85088 | 7.00461 | 25189 ft | 351 kts | 180° |
| 2026-05-06 08:17 | 44.82674 | 7.00835 | 24937 ft | 349 kts | 180° |
| 2026-05-06 08:17 | 44.80245 | 7.01222 | 24671 ft | 351 kts | 179° |
| 2026-05-06 08:18 | 44.77850 | 7.01752 | 24428 ft | 352 kts | 176° |
| 2026-05-06 08:18 | 44.75425 | 7.02342 | 24171 ft | 351 kts | 177° |
| 2026-05-06 08:18 | 44.73025 | 7.02916 | 23904 ft | 349 kts | 177° |
| 2026-05-06 08:18 | 44.70643 | 7.03483 | 23653 ft | 348 kts | 177° |
| 2026-05-06 08:19 | 44.68279 | 7.04047 | 23403 ft | 344 kts | 177° |
| 2026-05-06 08:19 | 44.65934 | 7.04605 | 23160 ft | 344 kts | 178° |
| 2026-05-06 08:19 | 44.63561 | 7.05170 | 22912 ft | 344 kts | 177° |
| 2026-05-06 08:19 | 44.61198 | 7.05732 | 22671 ft | 342 kts | 177° |
| 2026-05-06 08:20 | 44.58847 | 7.06290 | 22418 ft | 343 kts | 176° |
| 2026-05-06 08:20 | 44.56521 | 7.06842 | 22172 ft | 339 kts | 177° |
| 2026-05-06 08:20 | 44.54206 | 7.07391 | 21926 ft | 341 kts | 176° |
| 2026-05-06 08:20 | 44.51850 | 7.07949 | 21681 ft | 340 kts | 176° |
| 2026-05-06 08:21 | 44.49529 | 7.08499 | 21431 ft | 341 kts | 176° |
| 2026-05-06 08:21 | 44.47200 | 7.09050 | 21190 ft | 339 kts | 176° |
| 2026-05-06 08:21 | 44.44870 | 7.09600 | 20922 ft | 339 kts | 176° |
| 2026-05-06 08:21 | 44.42551 | 7.10148 | 20661 ft | 339 kts | 176° |
| 2026-05-06 08:22 | 44.40227 | 7.10697 | 20415 ft | 339 kts | 175° |
| 2026-05-06 08:22 | 44.37934 | 7.11237 | 20172 ft | 338 kts | 176° |
| 2026-05-06 08:22 | 44.35597 | 7.11788 | 19892 ft | 337 kts | 175° |
| 2026-05-06 08:22 | 44.33311 | 7.12326 | 19641 ft | 336 kts | 175° |
| 2026-05-06 08:23 | 44.31010 | 7.12868 | 19384 ft | 336 kts | 175° |
| 2026-05-06 08:23 | 44.28706 | 7.13409 | 19106 ft | 334 kts | 175° |
| 2026-05-06 08:23 | 44.26421 | 7.13946 | 18844 ft | 333 kts | 175° |
| 2026-05-06 08:23 | 44.24131 | 7.14483 | 18601 ft | 332 kts | 175° |
| 2026-05-06 08:24 | 44.21817 | 7.15056 | 18343 ft | 333 kts | 171° |
| 2026-05-06 08:24 | 44.19634 | 7.16134 | 18053 ft | 338 kts | 161° |
| 2026-05-06 08:24 | 44.17494 | 7.17433 | 17806 ft | 336 kts | 162° |
| 2026-05-06 08:24 | 44.15342 | 7.18702 | 17543 ft | 337 kts | 162° |
| 2026-05-06 08:25 | 44.13181 | 7.19968 | 17284 ft | 337 kts | 162° |
| 2026-05-06 08:25 | 44.11032 | 7.21228 | 17032 ft | 335 kts | 162° |
| 2026-05-06 08:25 | 44.08896 | 7.22480 | 16771 ft | 334 kts | 162° |
| 2026-05-06 08:25 | 44.06778 | 7.23721 | 16520 ft | 331 kts | 162° |
| 2026-05-06 08:26 | 44.04646 | 7.24969 | 16261 ft | 332 kts | 162° |
| 2026-05-06 08:26 | 44.02525 | 7.26209 | 16009 ft | 331 kts | 162° |
| 2026-05-06 08:26 | 44.00413 | 7.27443 | 15753 ft | 329 kts | 162° |
| 2026-05-06 08:26 | 43.98283 | 7.28687 | 15495 ft | 329 kts | 162° |
| 2026-05-06 08:27 | 43.96189 | 7.29908 | 15232 ft | 328 kts | 162° |
| 2026-05-06 08:27 | 43.94117 | 7.31116 | 14974 ft | 326 kts | 162° |
| 2026-05-06 08:27 | 43.92036 | 7.32329 | 14707 ft | 325 kts | 161° |
| 2026-05-06 08:27 | 43.89950 | 7.33543 | 14449 ft | 322 kts | 162° |
| 2026-05-06 08:28 | 43.87862 | 7.34757 | 14197 ft | 322 kts | 161° |
| 2026-05-06 08:28 | 43.85784 | 7.35965 | 13945 ft | 321 kts | 161° |
| 2026-05-06 08:28 | 43.83744 | 7.37167 | 13683 ft | 323 kts | 158° |
| 2026-05-06 08:28 | 43.81858 | 7.38909 | 13390 ft | 327 kts | 144° |
| 2026-05-06 08:29 | 43.80123 | 7.40907 | 13143 ft | 326 kts | 144° |
| 2026-05-06 08:29 | 43.78372 | 7.42877 | 12877 ft | 325 kts | 145° |
| 2026-05-06 08:29 | 43.76607 | 7.44848 | 12629 ft | 324 kts | 144° |
| 2026-05-06 08:29 | 43.74876 | 7.46784 | 12387 ft | 323 kts | 144° |
| 2026-05-06 08:30 | 43.73112 | 7.48754 | 12120 ft | 322 kts | 144° |
| 2026-05-06 08:30 | 43.71363 | 7.50705 | 11879 ft | 322 kts | 145° |
| 2026-05-06 08:30 | 43.69613 | 7.52655 | 11619 ft | 322 kts | 144° |
| 2026-05-06 08:30 | 43.67964 | 7.54703 | 11341 ft | 325 kts | 132° |
| 2026-05-06 08:31 | 43.66949 | 7.57499 | 11056 ft | 331 kts | 109° |
| 2026-05-06 08:31 | 43.66367 | 7.60554 | 10870 ft | 328 kts | 109° |
| 2026-05-06 08:31 | 43.65641 | 7.63530 | 10839 ft | 328 kts | 112° |
| 2026-05-06 08:31 | 43.64867 | 7.66499 | 10847 ft | 329 kts | 113° |
| 2026-05-06 08:32 | 43.64099 | 7.69489 | 10640 ft | 330 kts | 113° |
| 2026-05-06 08:32 | 43.63343 | 7.72429 | 10344 ft | 328 kts | 113° |
| 2026-05-06 08:32 | 43.62579 | 7.75392 | 10037 ft | 326 kts | 113° |
| 2026-05-06 08:32 | 43.61823 | 7.78322 | 9735 ft | 323 kts | 113° |
| 2026-05-06 08:33 | 43.61067 | 7.81249 | 9441 ft | 323 kts | 113° |
| 2026-05-06 08:33 | 43.60322 | 7.84131 | 9102 ft | 322 kts | 113° |
| 2026-05-06 08:33 | 43.59483 | 7.86982 | 8628 ft | 316 kts | 124° |
| 2026-05-06 08:33 | 43.57993 | 7.89071 | 8167 ft | 303 kts | 153° |
| 2026-05-06 08:34 | 43.56043 | 7.89904 | 7698 ft | 292 kts | 181° |
| 2026-05-06 08:34 | 43.52528 | 7.87723 | 6752 ft | 283 kts | 225° |
| 2026-05-06 08:34 | 43.51179 | 7.85772 | 6269 ft | 282 kts | 229° |
| 2026-05-06 08:35 | 43.49736 | 7.83933 | 5757 ft | 282 kts | 214° |
| 2026-05-06 08:35 | 43.47872 | 7.83100 | 5257 ft | 285 kts | 188° |
| 2026-05-06 08:35 | 43.45900 | 7.82990 | 4786 ft | 282 kts | 185° |
| 2026-05-06 08:35 | 43.43988 | 7.82768 | 4290 ft | 276 kts | 188° |
| 2026-05-06 08:36 | 43.42138 | 7.82318 | 3934 ft | 261 kts | 205° |
| 2026-05-06 08:36 | 43.40800 | 7.80784 | 3931 ft | 249 kts | 239° |
| 2026-05-06 08:36 | 43.40349 | 7.78517 | 3955 ft | 252 kts | 270° |
| 2026-05-06 08:36 | 43.40474 | 7.76084 | 3986 ft | 257 kts | 273° |
| 2026-05-06 08:37 | 43.40612 | 7.73660 | 3971 ft | 256 kts | 273° |
| 2026-05-06 08:37 | 43.40751 | 7.71219 | 3977 ft | 257 kts | 273° |
| 2026-05-06 08:37 | 43.40885 | 7.68795 | 3973 ft | 256 kts | 273° |
| 2026-05-06 08:37 | 43.41018 | 7.66337 | 3975 ft | 256 kts | 273° |
| 2026-05-06 08:38 | 43.41150 | 7.63902 | 3969 ft | 256 kts | 276° |
| 2026-05-06 08:38 | 43.41653 | 7.61562 | 3970 ft | 257 kts | 281° |
| 2026-05-06 08:38 | 43.41633 | 7.59121 | 3987 ft | 255 kts | 261° |
| 2026-05-06 08:38 | 43.41433 | 7.56727 | 3969 ft | 255 kts | 268° |
| 2026-05-06 08:39 | 43.41488 | 7.54290 | 3979 ft | 254 kts | 272° |
| 2026-05-06 08:39 | 43.41572 | 7.51850 | 3974 ft | 255 kts | 272° |
| 2026-05-06 08:39 | 43.41643 | 7.49414 | 3968 ft | 257 kts | 272° |
| 2026-05-06 08:39 | 43.41714 | 7.46962 | 3975 ft | 257 kts | 271° |
| 2026-05-06 08:40 | 43.41785 | 7.44526 | 3968 ft | 255 kts | 271° |
| 2026-05-06 08:40 | 43.41855 | 7.42095 | 3973 ft | 256 kts | 271° |
| 2026-05-06 08:40 | 43.41925 | 7.39638 | 3915 ft | 257 kts | 271° |
| 2026-05-06 08:40 | 43.41994 | 7.37191 | 3757 ft | 255 kts | 272° |
| 2026-05-06 08:41 | 43.42062 | 7.34794 | 3607 ft | 247 kts | 271° |
| 2026-05-06 08:41 | 43.42128 | 7.32457 | 3440 ft | 243 kts | 272° |
| 2026-05-06 08:41 | 43.42191 | 7.30148 | 3284 ft | 243 kts | 272° |
| 2026-05-06 08:41 | 43.42254 | 7.27874 | 3127 ft | 233 kts | 272° |
| 2026-05-06 08:42 | 43.42313 | 7.25701 | 2974 ft | 221 kts | 272° |
| 2026-05-06 08:42 | 43.42369 | 7.23672 | 2944 ft | 204 kts | 273° |
| 2026-05-06 08:42 | 43.42735 | 7.21896 | 2931 ft | 189 kts | 302° |
| 2026-05-06 08:42 | 43.43570 | 7.20513 | 3055 ft | 189 kts | 311° |
| 2026-05-06 08:43 | 43.44449 | 7.19166 | 2986 ft | 188 kts | 309° |
| 2026-05-06 08:43 | 43.45310 | 7.17809 | 2970 ft | 191 kts | 309° |
| 2026-05-06 08:43 | 43.46254 | 7.16508 | 2958 ft | 195 kts | 327° |
| 2026-05-06 08:43 | 43.47589 | 7.16128 | 2988 ft | 199 kts | 357° |
| 2026-05-06 08:44 | 43.48994 | 7.16082 | 2982 ft | 204 kts | 355° |
| 2026-05-06 08:44 | 43.50390 | 7.15951 | 2976 ft | 199 kts | 354° |
| 2026-05-06 08:44 | 43.51780 | 7.15814 | 2970 ft | 199 kts | 354° |
| 2026-05-06 08:44 | 43.53124 | 7.15686 | 2900 ft | 192 kts | 355° |
| 2026-05-06 08:45 | 43.54436 | 7.15566 | 2524 ft | 186 kts | 356° |
| 2026-05-06 08:45 | 43.55712 | 7.15450 | 2107 ft | 183 kts | 357° |
| 2026-05-06 08:45 | 43.56988 | 7.15395 | 1698 ft | 182 kts | 4° |
| 2026-05-06 08:45 | 43.58212 | 7.15704 | 1327 ft | 180 kts | 15° |
| 2026-05-06 08:46 | 43.59420 | 7.16184 | 965 ft | 176 kts | 16° |
| 2026-05-06 08:46 | 43.60499 | 7.16683 | 890 ft | 163 kts | 18° |
| 2026-05-06 08:46 | 43.61519 | 7.17163 | 724 ft | 140 kts | 17° |
| 2026-05-06 08:46 | 43.62336 | 7.17566 | 418 ft | 118 kts | 21° |
| 2026-05-06 08:47 | 43.63022 | 7.18080 | 109 ft | 110 kts | 31° |
| 2026-05-06 08:47 | 43.63634 | 7.18676 | 63 ft | 110 kts | 37° |
| 2026-05-06 08:47 | 43.64172 | 7.19375 | 167 ft | 107 kts | 29° |
| 2026-05-06 08:47 | 43.64729 | 7.19869 | 155 ft | 108 kts | 37° |
| 2026-05-06 08:48 | 43.65305 | 7.20621 | 31 ft | 110 kts | 42° |
| 2026-05-06 08:48 | 43.65817 | 7.21259 | 25 ft | 90 kts | 39° |
| 2026-05-06 08:48 | 43.66166 | 7.21729 | 25 ft | 20 kts | 30° |
| 2026-05-06 08:48 | 43.66262 | 7.21697 | 25 ft | 14 kts | 314° |
| 2026-05-06 08:49 | 43.66273 | 7.21588 | 25 ft | 12 kts | 229° |
| 2026-05-06 08:49 | 43.66202 | 7.21497 | 25 ft | 15 kts | 226° |
| 2026-05-06 08:49 | 43.66124 | 7.21386 | 25 ft | 17 kts | 221° |
| 2026-05-06 08:49 | 43.66027 | 7.21271 | 25 ft | 19 kts | 223° |
| 2026-05-06 08:50 | 43.65930 | 7.21130 | 25 ft | 21 kts | 231° |
| 2026-05-06 08:50 | 43.65828 | 7.20974 | 25 ft | 21 kts | 225° |
| 2026-05-06 08:50 | 43.65733 | 7.20843 | 25 ft | 11 kts | 224° |
| 2026-05-06 08:50 | 43.65733 | 7.20799 | 25 ft | 5 kts | 314° |
| 2026-05-06 08:51 | 43.65756 | 7.20768 | 25 ft | 4 kts | 315° |
| 2026-05-06 08:51 | 43.65769 | 7.20750 | 25 ft | 0 kts | 314° |